Clinton, MS (39056)

10:39 PM CDT on July 29, 2016 (GMT -0500)
SPRINGRIDGE MOBILE ESTATES | | Change Station

Elev 315 ft 32.32 °N, 90.32 °W | Updated 9 seconds ago

Haze
Haze
80.8 °F
Feels Like 87 °F
N
2.0
Wind Variable Wind from SW
Gusts 2.0 mph

Today
High -- | Low -- °F
--% Chance of Precip.
Yesterday
High -- | Low -- °F
Precip. -- in
Pressure 30.00 in
Visibility 6.0 miles
Clouds Clear
Heat Index 87 °F
Dew Point 76 °F
Humidity 85%
Rainfall 0.00 in
Snow Depth Not available.
6:14 AM 8:00 PM
Waning Crescent, 16% visible
METAR KJVW 300335Z AUTO 00000KT 6SM HZ CLR 25/23 A3000 RMK AO2
Pressure 30.00 in
Visibility 6.0 miles
Clouds Clear
Heat Index 87 °F
Dew Point 76 °F
Humidity 85%
Rainfall 0.00 in
Snow Depth Not available.
6:14 AM 8:00 PM
Waning Crescent, 16% visible
METAR KJVW 300335Z AUTO 00000KT 6SM HZ CLR 25/23 A3000 RMK AO2

10-Day Weather Forecast

Almanac

Astronomy

Jul. 29, 2016 Rise Set
Actual Time
Civil Twilight
Nautical Twilight
Astronomical Twilight
Moon
Length of Visible Light
Length of Day
Tomorrow will be .
, % of the Moon is Illuminated

Today's Extremes

State Highs State Lows

Community

WunderPhotos

Upload Photos

1,928,500 photos uploaded!

WunderBlog® & News

Nearby

Air Quality

  Air Quality AQ Index Pollutant
Not available.

Snow Depth

Station Depth Elevation

Earthquake Activity

City Distance Mag. Time & Date
Minimum magnitude displayed is 2.5.

Coastal Water Temperatures

Place Temperature

Stations

Nearby Weather Stations

Station Location Temp. Windchill Dew Point Humidity Wind Precip. Elev Updated Type
                   

Watches & Warnings

There are currently no watches in effect.